MMMY/MTY METAR and TAF weather

Enter ICAO airport designator
Station Type Date Time Source
MMMY METAR 2019/12/08 00:42 UTC NOAA

MMMY 080042Z 10005KT 12SM SKC 18/11 A3016


Station Type Date Time Source
MMMY Decoded METAR 2019/12/08 00:42 UTC NOAA

Monterrey / Gen Maria, Mexico (MMMY) 25-47N 100-06W
Dec 07, 2019 - 07:42 PM EST / 2019.12.08 0042 UTC
Wind: from the E (100 degrees) at 6 MPH (5 KT):0
Visibility: 12 mile(s):0
Sky conditions: clear
Temperature: 64 F (18 C)
Dew Point: 51 F (11 C)
Relative Humidity: 63%
Pressure (altimeter): 30.16 in. Hg (1021 hPa)
ob: MMMY 080042Z 10005KT 12SM SKC 18/11 A3016
cycle: 0

Station Type Date Time Source
MMMY TAF 2019/12/07 18:30 UTC NOAA

TAF MMMY 071623Z 0718/0824 12006KT P6SM SCT070 TX24/0722Z TN12/0813Z
BECMG 0720/0721 12012KT
FM080200 14005KT P6SM SKC
BECMG 0805/0806 00000KT
FM081000 00000KT 3SM BR HZ OVC015
TEMPO 0811/0815 1/2SM FG VV003
FM081600 09005KT 5SM HZ BKN015
FM081700 12005KT 6SM HZ SCT020
BECMG 0820/0821 12012KT SKC

Example: see airport list